13分钟前
罗盘
风向 的 风向 260° Carcassonne Airport 10/28
风: 8 千吨, 3 beaufort
乌云 & 能见度
METAR LFMK 260730Z AUTO 26008KT 9999 SCT062 18/16 Q1019 NOSIG

METAR定义 | 嵌入

24小时趋势

航班类别VFRLIFR
温度26 °C18 °C
风速17 千吨0 千吨
风向330°000°
能见度10 公里+0 米
昆士兰州10191014

更多历史数据

下载我们的安卓应用程序

从你的主屏幕上轻松地访问你的航空天气。
只需一次付费,您就可以获得无广告的体验。

您会帮助我们保持Metar-Taf.com正常运行吗?
您的贡献有助于网站的进一步开发并支付费用。

没有更多广告

您是捐款5美元还是更多?然后,我们将永远不会再向您展示广告,这是我们永恒的感谢!
捐赠前先登录

METAR Carcassonne Airport

Carcassonne Airport是Carcassonne/Salvaza,法国中的中型机场。 机场有{a,plural,=1{一条跑道} other{#跑道}}: 10/28 (2.050 米)

该报告是针对2021年9月26日 09:30, 当地时间上的Carcassonne Airport所做的。

机场观察

风来自西 (260°)方向,速度为8 千吨。

可见度为10 公里 或者更多。

有疏云,零星散落的云朵在6.200 ft的高度。 没有观察到天花板。

温度和风寒是18 °C。 露点为16 °C,相对湿度为88%。 海平面上的气压为1019 压力 (QNH)。

白天

今天,太阳从07:42升起,在19:41降落。 这适用于Carcassonne Airport,世界夏令时可能有所不同。 当地时间与世界标准时间之间的时差为+2 小时。 夏令时目前正在进行中。

您是否要在网站上Carcassonne Airport飞行的天气? 阅读更多   自由!